Time;durP1;ratioP1;P1;durP2;ratioP2;P2;SDS_P1;SDS_P2;PMS_P1;PMS_P2;Temp;Humidity;BMP_temperature;BMP_pressure;BME280_temperature;BME280_humidity;BME280_pressure;Samples;Min_cycle;Max_cycle;Signal;HPM_P1;HPM_P2
2023/03/08 05:32:53;;;;;;;10.82;2.40;;;12.20;88.70;;;;;;6096445;23;20038;-73
2023/03/08 05:35:19;;;;;;;6.13;1.33;;;12.20;88.80;;;;;;6121952;23;20357;-76
2023/03/08 05:37:44;;;;;;;9.18;1.50;;;12.20;88.70;;;;;;6100220;23;19999;-76
2023/03/08 05:40:11;;;;;;;8.07;1.92;;;12.20;88.70;;;;;;6099621;23;20478;-76
2023/03/08 05:42:37;;;;;;;14.45;2.40;;;12.20;88.70;;;;;;6122537;23;20077;-76
2023/03/08 05:45:03;;;;;;;9.27;1.67;;;12.20;88.70;;;;;;6100140;23;20010;-73
2023/03/08 05:47:29;;;;;;;12.98;2.45;;;12.30;88.70;;;;;;6100318;23;20006;-75
2023/03/08 05:49:55;;;;;;;8.10;1.67;;;12.30;88.50;;;;;;6102305;23;20003;-73
2023/03/08 05:52:20;;;;;;;7.55;2.25;;;12.30;88.60;;;;;;6099696;23;20078;-76
2023/03/08 05:54:46;;;;;;;9.82;2.10;;;12.40;88.60;;;;;;6099835;23;20006;-76
2023/03/08 05:57:12;;;;;;;9.48;2.38;;;12.40;88.40;;;;;;6099563;23;19998;-76
2023/03/08 05:59:37;;;;;;;10.25;2.88;;;12.40;88.20;;;;;;6099941;23;20061;-77
2023/03/08 06:02:03;;;;;;;11.40;2.40;;;12.50;88.20;;;;;;6097277;23;20005;-77
2023/03/08 06:04:29;;;;;;;7.97;2.22;;;12.50;88.10;;;;;;6099532;23;20466;-74
2023/03/08 06:06:54;;;;;;;14.75;2.70;;;12.50;88.00;;;;;;6099754;23;20002;-75
2023/03/08 06:09:20;;;;;;;6.65;1.42;;;12.50;88.00;;;;;;6099647;23;20013;-74
2023/03/08 06:11:45;;;;;;;11.57;2.63;;;12.60;87.90;;;;;;6099125;23;20002;-74
2023/03/08 06:14:11;;;;;;;11.80;1.77;;;12.60;87.80;;;;;;6099169;23;20010;-74
2023/03/08 06:16:37;;;;;;;8.35;2.75;;;12.50;87.70;;;;;;6099894;23;19999;-76
2023/03/08 06:19:02;;;;;;;6.22;2.20;;;12.60;87.70;;;;;;6100055;23;20017;-75
2023/03/08 06:21:28;;;;;;;4.50;1.35;;;12.60;87.90;;;;;;6099678;23;20007;-75
2023/03/08 06:23:56;;;;;;;5.15;1.83;;;12.60;87.90;;;;;;6099666;23;20423;-75
2023/03/08 06:26:22;;;;;;;7.18;1.67;;;12.50;88.10;;;;;;6099247;23;20002;-76
2023/03/08 06:28:48;;;;;;;8.68;1.90;;;12.50;88.40;;;;;;6098872;23;20045;-77
2023/03/08 06:31:16;;;;;;;6.97;1.98;;;12.50;88.50;;;;;;6099127;23;20038;-77
2023/03/08 06:33:41;;;;;;;8.27;1.88;;;12.50;88.40;;;;;;6099084;23;20077;-73
2023/03/08 06:36:11;;;;;;;8.55;1.75;;;12.50;88.40;;;;;;6099253;23;20010;-76
2023/03/08 06:38:39;;;;;;;11.30;2.45;;;12.60;88.40;;;;;;6122174;23;20002;-76
2023/03/08 06:41:06;;;;;;;7.32;2.20;;;12.60;88.40;;;;;;6099429;23;20002;-76
2023/03/08 06:43:32;;;;;;;13.20;2.38;;;12.60;88.40;;;;;;6099365;23;20013;-75
2023/03/08 06:46:03;;;;;;;8.35;2.45;;;12.60;88.40;;;;;;6097629;23;20014;-74
2023/03/08 06:48:29;;;;;;;4.65;1.73;;;12.60;88.30;;;;;;6098713;23;20010;-75
2023/03/08 06:50:54;;;;;;;10.43;2.15;;;12.60;88.30;;;;;;6099303;23;20009;-73
2023/03/08 06:53:20;;;;;;;7.90;1.77;;;12.60;88.20;;;;;;6099475;23;20014;-74
2023/03/08 06:55:46;;;;;;;4.57;1.40;;;12.60;88.20;;;;;;6099454;23;20014;-74
2023/03/08 06:58:11;;;;;;;8.30;1.65;;;12.60;88.10;;;;;;6098845;23;20002;-74
2023/03/08 07:00:38;;;;;;;5.03;1.33;;;12.70;88.00;;;;;;6099606;23;20003;-74
2023/03/08 07:03:03;;;;;;;7.15;1.83;;;12.70;88.10;;;;;;6099565;23;20002;-74
2023/03/08 07:05:29;;;;;;;3.70;1.05;;;12.70;87.90;;;;;;6098495;23;20092;-74
2023/03/08 07:07:55;;;;;;;3.47;0.88;;;12.60;87.80;;;;;;6097541;23;20010;-74
2023/03/08 07:10:21;;;;;;;4.95;1.50;;;12.60;87.70;;;;;;6099677;23;20350;-74
2023/03/08 07:12:50;;;;;;;3.20;1.10;;;12.50;87.50;;;;;;6099612;23;20014;-74
2023/03/08 07:15:18;;;;;;;3.88;1.25;;;12.50;87.60;;;;;;6099118;23;20002;-75
2023/03/08 07:17:46;;;;;;;7.88;1.55;;;12.50;87.80;;;;;;6099649;23;20006;-74
2023/03/08 07:20:13;;;;;;;6.35;1.00;;;12.50;87.60;;;;;;6099348;23;20002;-75
2023/03/08 07:22:40;;;;;;;4.40;1.05;;;12.50;87.50;;;;;;6098038;23;20556;-74
2023/03/08 07:25:07;;;;;;;1.45;0.63;;;12.60;87.70;;;;;;6099042;23;20002;-74
2023/03/08 07:27:33;;;;;;;6.22;1.33;;;12.60;87.60;;;;;;6099552;23;20011;-74
2023/03/08 07:29:59;;;;;;;4.03;1.55;;;12.70;87.40;;;;;;6097741;23;20216;-75
2023/03/08 07:32:27;;;;;;;4.25;1.50;;;12.70;87.00;;;;;;6098858;23;20092;-75
2023/03/08 07:34:54;;;;;;;6.43;1.48;;;12.70;86.90;;;;;;6099258;23;20033;-75
2023/03/08 07:37:20;;;;;;;6.80;1.67;;;12.70;86.30;;;;;;6097976;23;20014;-74
2023/03/08 07:39:45;;;;;;;1.98;1.20;;;13.00;86.10;;;;;;6099412;23;20097;-75
2023/03/08 07:42:11;;;;;;;8.82;1.30;;;13.60;84.30;;;;;;6099218;23;20006;-74
2023/03/08 07:44:37;;;;;;;5.10;1.50;;;13.70;83.90;;;;;;6122140;23;20010;-74
2023/03/08 07:47:04;;;;;;;6.93;1.15;;;14.10;83.10;;;;;;6099405;23;20049;-74
2023/03/08 07:49:29;;;;;;;2.80;0.90;;;14.50;80.50;;;;;;6098961;23;20017;-75
2023/03/08 07:51:55;;;;;;;3.72;1.05;;;14.60;80.20;;;;;;6098151;23;20006;-75
2023/03/08 07:54:21;;;;;;;3.70;0.98;;;14.30;79.70;;;;;;6099592;23;20397;-74
2023/03/08 07:56:46;;;;;;;6.38;1.17;;;13.90;80.60;;;;;;6101145;23;20006;-74
2023/03/08 07:59:12;;;;;;;10.43;1.90;;;13.80;80.80;;;;;;6124234;23;20002;-74
2023/03/08 08:01:38;;;;;;;6.00;1.15;;;14.30;80.60;;;;;;6099718;23;20010;-75
2023/03/08 08:04:03;;;;;;;5.18;1.13;;;14.80;79.00;;;;;;6124114;23;20010;-75
2023/03/08 08:06:29;;;;;;;5.15;1.27;;;15.00;77.70;;;;;;6101489;23;20056;-75
2023/03/08 08:08:56;;;;;;;7.43;1.45;;;15.30;76.80;;;;;;6101291;23;20045;-74
2023/03/08 08:11:22;;;;;;;4.47;0.90;;;15.40;77.30;;;;;;6099360;23;20002;-75
2023/03/08 08:13:48;;;;;;;4.82;1.00;;;15.30;76.60;;;;;;6101073;23;20070;-75
2023/03/08 08:16:15;;;;;;;7.03;1.63;;;15.10;77.30;;;;;;6101200;23;20540;-75
2023/03/08 08:18:41;;;;;;;9.65;1.10;;;15.30;76.90;;;;;;6100858;23;20044;-74
2023/03/08 08:21:10;;;;;;;6.25;1.10;;;15.50;76.90;;;;;;6099671;23;20038;-75
2023/03/08 08:23:36;;;;;;;3.88;0.90;;;15.80;76.10;;;;;;6101195;23;20089;-75
2023/03/08 08:26:10;;;;;;;9.00;1.48;;;15.50;76.70;;;;;;6100885;23;20006;-75
2023/03/08 08:28:38;;;;;;;8.45;1.20;;;15.30;77.60;;;;;;6101445;23;20030;-75
2023/03/08 08:31:10;;;;;;;6.20;1.38;;;15.00;78.10;;;;;;6099281;23;20347;-75
2023/03/08 08:33:36;;;;;;;6.03;1.45;;;14.80;78.40;;;;;;6101241;23;20053;-75
2023/03/08 08:36:05;;;;;;;6.68;1.80;;;14.80;78.70;;;;;;6101062;23;20315;-74
2023/03/08 08:38:31;;;;;;;6.68;1.25;;;15.00;79.40;;;;;;6101132;23;20005;-74
2023/03/08 08:41:00;;;;;;;6.95;2.47;;;15.30;78.80;;;;;;6100629;23;20002;-74
2023/03/08 08:43:26;;;;;;;9.30;1.50;;;15.80;77.70;;;;;;6101375;23;20143;-74
2023/03/08 08:45:54;;;;;;;11.18;2.08;;;16.00;76.50;;;;;;6100753;23;20058;-75
2023/03/08 08:48:21;;;;;;;9.57;1.38;;;17.10;74.40;;;;;;6101026;23;20010;-75
2023/03/08 08:50:47;;;;;;;7.05;1.67;;;16.90;72.30;;;;;;6100568;23;20010;-75
2023/03/08 08:53:13;;;;;;;9.20;2.00;;;16.80;72.20;;;;;;6100781;23;20514;-75
2023/03/08 08:55:38;;;;;;;6.57;1.55;;;16.70;73.10;;;;;;6100406;23;20415;-75
2023/03/08 08:58:05;;;;;;;12.57;2.45;;;16.30;72.20;;;;;;6099363;23;20461;-75
2023/03/08 09:00:32;;;;;;;15.65;2.28;;;16.10;73.80;;;;;;6099187;23;20007;-75
2023/03/08 09:02:58;;;;;;;10.27;1.60;;;15.90;74.60;;;;;;6100596;23;19999;-75
2023/03/08 09:05:24;;;;;;;17.80;2.72;;;15.60;74.70;;;;;;6100703;23;20008;-75
2023/03/08 09:07:59;;;;;;;10.48;1.73;;;15.40;75.80;;;;;;6100550;23;20094;-74
2023/03/08 09:10:29;;;;;;;6.32;1.52;;;15.40;76.20;;;;;;6074762;23;20014;-75
2023/03/08 09:12:57;;;;;;;11.65;1.88;;;15.30;76.50;;;;;;6100292;23;20011;-75
2023/03/08 09:15:23;;;;;;;21.08;2.70;;;15.30;76.70;;;;;;6100109;23;20015;-74
2023/03/08 09:17:49;;;;;;;12.57;1.98;;;15.20;76.80;;;;;;6100885;23;20009;-75
2023/03/08 09:20:15;;;;;;;12.73;2.47;;;15.30;77.30;;;;;;6100881;23;20012;-75
2023/03/08 09:22:41;;;;;;;8.57;2.20;;;15.40;76.80;;;;;;6100846;23;20733;-75
2023/03/08 09:25:07;;;;;;;12.43;2.03;;;15.70;76.80;;;;;;6098595;23;20509;-75
2023/03/08 09:27:33;;;;;;;14.88;2.72;;;15.70;76.30;;;;;;6099008;23;20011;-75
2023/03/08 09:29:59;;;;;;;8.65;2.10;;;15.60;75.60;;;;;;6123336;23;20018;-75
2023/03/08 09:32:25;;;;;;;8.02;2.20;;;15.50;76.10;;;;;;6123006;23;20513;-75
2023/03/08 09:34:52;;;;;;;13.55;2.75;;;15.30;76.20;;;;;;6100273;23;20383;-74
2023/03/08 09:37:17;;;;;;;11.05;2.20;;;15.20;76.80;;;;;;6100255;23;19999;-75
2023/03/08 09:39:44;;;;;;;9.30;1.85;;;15.10;77.20;;;;;;6100148;23;20002;-75
2023/03/08 09:42:22;;;;;;;9.02;1.70;;;15.00;77.30;;;;;;6100443;23;19999;-75
2023/03/08 09:45:00;;;;;;;16.02;2.22;;;14.90;77.70;;;;;;6099951;23;20473;-75
2023/03/08 09:47:29;;;;;;;10.07;2.40;;;14.90;78.10;;;;;;6099941;23;20006;-75
2023/03/08 09:50:11;;;;;;;9.95;2.47;;;15.00;78.40;;;;;;6100323;23;20051;-75
2023/03/08 09:53:06;;;;;;;11.80;1.80;;;15.10;78.50;;;;;;6100067;23;20006;-75
2023/03/08 09:55:35;;;;;;;9.10;1.80;;;15.10;78.10;;;;;;6083970;23;20025;-75
2023/03/08 09:58:31;;;;;;;8.38;1.27;;;15.20;78.10;;;;;;6100268;23;20072;-75
2023/03/08 10:01:08;;;;;;;13.68;2.42;;;15.10;78.00;;;;;;6099225;23;20010;-75
2023/03/08 10:03:53;;;;;;;14.10;1.85;;;15.00;79.00;;;;;;6100051;23;20013;-74
2023/03/08 10:06:49;;;;;;;7.88;2.30;;;14.80;79.10;;;;;;6100081;23;20009;-74
2023/03/08 10:09:17;;;;;;;7.10;1.67;;;14.80;79.80;;;;;;6100153;23;20292;-74
2023/03/08 10:12:10;;;;;;;8.43;1.83;;;14.80;80.30;;;;;;6099471;23;20149;-74
2023/03/08 10:14:41;;;;;;;8.73;1.40;;;14.80;80.30;;;;;;6094469;23;20363;-74
2023/03/08 10:17:16;;;;;;;13.98;2.53;;;14.60;80.40;;;;;;6099763;23;20013;-74
2023/03/08 10:19:51;;;;;;;9.82;2.05;;;14.60;81.10;;;;;;6099834;23;20087;-74
2023/03/08 10:22:28;;;;;;;9.23;2.25;;;14.70;81.40;;;;;;6123071;23;20006;-74
2023/03/08 10:25:23;;;;;;;7.75;1.88;;;15.00;81.20;;;;;;6099649;23;20053;-74
2023/03/08 10:27:53;;;;;;;10.57;2.00;;;15.10;80.60;;;;;;6100057;23;20006;-74
2023/03/08 10:30:21;;;;;;;11.77;1.83;;;15.20;80.40;;;;;;6099635;23;20029;-74
2023/03/08 10:32:51;;;;;;;8.45;1.40;;;15.40;80.00;;;;;;6099558;23;20058;-74
2023/03/08 10:35:29;;;;;;;5.05;1.00;;;15.60;79.70;;;;;;6099693;23;20446;-74
2023/03/08 10:37:54;;;;;;;7.57;1.40;;;15.70;79.10;;;;;;6099653;23;20077;-74
2023/03/08 10:40:21;;;;;;;3.28;1.05;;;15.50;79.30;;;;;;6099773;23;20003;-74
2023/03/08 10:43:01;;;;;;;5.57;1.20;;;15.50;79.50;;;;;;6099656;23;20006;-74
2023/03/08 10:45:28;;;;;;;3.00;0.93;;;15.60;79.90;;;;;;6122426;23;20125;-74
2023/03/08 10:48:02;;;;;;;6.22;1.30;;;15.80;79.90;;;;;;6099799;23;20013;-74
2023/03/08 10:50:35;;;;;;;5.90;1.40;;;16.00;79.70;;;;;;6099763;23;20003;-73
2023/03/08 10:53:16;;;;;;;6.32;1.30;;;16.10;78.40;;;;;;6098125;23;20006;-74
2023/03/08 10:55:47;;;;;;;5.30;1.10;;;16.10;78.40;;;;;;6097928;23;20394;-74
2023/03/08 10:58:35;;;;;;;8.98;2.15;;;16.10;78.60;;;;;;6099732;23;20006;-74
2023/03/08 11:01:03;;;;;;;4.97;0.98;;;16.10;78.40;;;;;;6098959;23;20006;-74
2023/03/08 11:03:30;;;;;;;2.35;1.00;;;16.00;78.90;;;;;;6099594;23;20080;-74
2023/03/08 11:06:25;;;;;;;3.95;1.00;;;16.10;78.50;;;;;;6099662;23;20014;-74
2023/03/08 11:08:56;;;;;;;3.10;1.00;;;16.30;77.50;;;;;;6067816;23;20045;-74
2023/03/08 11:11:22;;;;;;;6.70;1.00;;;16.20;77.10;;;;;;6099554;23;20037;-73
2023/03/08 11:13:50;;;;;;;3.35;0.98;;;16.10;77.10;;;;;;6099285;23;20002;-74
2023/03/08 11:16:22;;;;;;;4.22;1.17;;;16.00;77.20;;;;;;6097741;23;20007;-74
2023/03/08 11:18:52;;;;;;;5.65;1.10;;;15.90;77.00;;;;;;6099513;23;19995;-74
2023/03/08 11:21:59;;;;;;;3.63;0.80;;;15.90;76.80;;;;;;6099100;23;19998;-74
2023/03/08 11:25:12;;;;;;;6.90;1.65;;;15.80;76.90;;;;;;6122289;23;20045;-74
2023/03/08 11:27:52;;;;;;;5.75;1.23;;;15.70;77.60;;;;;;6085254;23;20029;-74
2023/03/08 11:30:18;;;;;;;9.45;1.60;;;15.70;77.10;;;;;;6097558;23;20009;-74
2023/03/08 11:32:50;;;;;;;6.68;1.58;;;15.50;77.00;;;;;;6099442;23;20018;-74
2023/03/08 11:35:49;;;;;;;4.97;1.33;;;15.50;77.40;;;;;;6099010;23;20009;-74
2023/03/08 11:38:21;;;;;;;5.20;1.45;;;15.40;77.20;;;;;;6099582;23;20005;-74
2023/03/08 11:40:57;;;;;;;9.32;1.83;;;15.30;77.40;;;;;;6099166;23;20006;-74
2023/03/08 11:43:34;;;;;;;9.07;1.15;;;15.30;78.10;;;;;;6099465;23;20003;-74
2023/03/08 11:46:20;;;;;;;9.70;2.10;;;15.20;78.60;;;;;;6099231;23;20003;-74
2023/03/08 11:48:55;;;;;;;11.43;1.92;;;15.10;78.30;;;;;;6099499;23;20034;-74
2023/03/08 11:51:24;;;;;;;7.88;2.22;;;15.10;79.10;;;;;;6099295;23;20009;-74
2023/03/08 11:54:16;;;;;;;7.57;1.95;;;14.90;79.70;;;;;;6099438;23;20508;-74
2023/03/08 11:57:03;;;;;;;12.65;2.00;;;14.90;80.40;;;;;;6099063;23;20033;-73
2023/03/08 11:59:52;;;;;;;10.68;1.75;;;14.80;80.80;;;;;;6099435;23;20435;-74
2023/03/08 12:02:22;;;;;;;7.80;1.50;;;14.80;81.50;;;;;;6099269;23;20003;-73
2023/03/08 12:05:19;;;;;;;9.75;2.22;;;14.90;81.80;;;;;;6097524;23;20006;-74
2023/03/08 12:07:59;;;;;;;6.80;1.42;;;14.80;81.80;;;;;;6099326;23;20006;-74
2023/03/08 12:10:44;;;;;;;10.45;2.80;;;14.70;81.90;;;;;;6099793;23;20312;-73
2023/03/08 12:13:23;;;;;;;6.60;1.17;;;14.60;82.20;;;;;;6099069;23;20058;-73
2023/03/08 12:15:56;;;;;;;8.07;1.85;;;14.60;82.10;;;;;;6098567;23;20003;-74
2023/03/08 12:18:21;;;;;;;5.78;1.23;;;14.60;82.60;;;;;;6099242;23;20050;-74
2023/03/08 12:20:48;;;;;;;11.85;1.92;;;14.70;82.20;;;;;;6099381;23;20002;-74
2023/03/08 12:23:36;;;;;;;6.55;1.63;;;14.70;82.30;;;;;;6098879;23;20009;-74
2023/03/08 12:26:14;;;;;;;8.05;1.85;;;14.80;81.90;;;;;;6099302;23;20136;-73
2023/03/08 12:28:44;;;;;;;1.92;1.10;;;14.90;81.60;;;;;;6099268;23;20077;-74
2023/03/08 12:31:24;;;;;;;;;;;14.90;81.70;;;;;;6122190;23;20033;-74
2023/03/08 12:33:51;;;;;;;10.45;1.48;;;14.90;81.80;;;;;;6097611;23;20324;-74
2023/03/08 12:36:19;;;;;;;8.35;1.80;;;15.00;81.60;;;;;;6099291;23;20342;-73
2023/03/08 12:38:48;;;;;;;7.82;1.33;;;15.10;80.90;;;;;;6097562;23;20009;-74
2023/03/08 12:41:27;;;;;;;8.77;1.60;;;15.20;80.50;;;;;;6122581;23;20009;-74
2023/03/08 12:44:02;;;;;;;7.45;1.85;;;15.30;80.40;;;;;;6100522;23;20010;-74
2023/03/08 12:46:28;;;;;;;12.07;2.25;;;15.20;79.90;;;;;;6100710;23;20081;-74
2023/03/08 12:48:54;;;;;;;8.23;1.98;;;15.20;80.70;;;;;;6100895;23;20006;-74
2023/03/08 12:51:31;;;;;;;7.15;1.65;;;15.20;80.20;;;;;;6098258;23;20061;-74
2023/03/08 12:54:00;;;;;;;10.07;1.70;;;15.20;80.50;;;;;;6098222;23;20040;-74
2023/03/08 12:56:51;;;;;;;5.78;1.80;;;15.20;80.60;;;;;;6099452;23;20081;-73
2023/03/08 12:59:16;;;;;;;12.73;2.22;;;15.30;80.30;;;;;;6100060;23;20007;-74
2023/03/08 13:02:09;;;;;;;5.70;1.88;;;15.40;79.60;;;;;;6099352;23;20086;-74
2023/03/08 13:04:38;;;;;;;4.90;1.42;;;15.40;79.70;;;;;;6095395;23;20018;-74
2023/03/08 13:07:30;;;;;;;9.50;1.80;;;15.40;79.70;;;;;;6099791;23;20779;-74
2023/03/08 13:10:22;;;;;;;5.00;2.00;;;15.50;79.50;;;;;;6098335;23;20034;-74
2023/03/08 13:12:47;;;;;;;6.80;1.30;;;15.40;79.70;;;;;;6095245;23;20010;-74
2023/03/08 13:15:21;;;;;;;7.22;1.90;;;15.30;79.80;;;;;;6099602;23;20002;-74
2023/03/08 13:17:57;;;;;;;8.82;1.48;;;15.30;80.20;;;;;;6099520;23;20002;-74
2023/03/08 13:20:39;;;;;;;6.72;1.90;;;15.40;79.50;;;;;;6099271;23;20090;-74
2023/03/08 13:23:13;;;;;;;5.35;1.58;;;15.40;79.20;;;;;;6100249;23;19998;-74
2023/03/08 13:26:00;;;;;;;10.43;1.80;;;15.40;79.40;;;;;;6097948;23;20009;-74
2023/03/08 13:28:33;;;;;;;8.85;2.00;;;15.30;79.30;;;;;;6098921;23;20057;-74
2023/03/08 13:31:14;;;;;;;11.52;1.98;;;15.30;79.30;;;;;;6098698;23;20045;-74
2023/03/08 13:33:41;;;;;;;;;;;15.60;79.70;;;;;;6099405;23;20093;-74
2023/03/08 13:36:37;;;;;;;7.20;2.28;;;15.60;79.30;;;;;;6099457;23;19964;-75
2023/03/08 13:39:17;;;;;;;14.40;1.75;;;15.70;78.90;;;;;;6099489;23;20283;-75
2023/03/08 13:41:44;;;;;;;6.00;1.33;;;15.70;78.90;;;;;;6097221;23;20006;-74
2023/03/08 13:44:27;;;;;;;9.50;2.05;;;15.80;78.70;;;;;;6099769;23;20007;-74
2023/03/08 13:47:00;;;;;;;4.93;1.55;;;16.00;78.00;;;;;;6099553;23;20030;-74
2023/03/08 13:49:34;;;;;;;4.85;1.42;;;16.00;78.10;;;;;;6100026;23;20426;-74
2023/03/08 13:52:02;;;;;;;9.50;1.58;;;16.00;77.20;;;;;;6099623;23;19998;-74
2023/03/08 13:54:33;;;;;;;4.85;1.17;;;16.00;77.00;;;;;;6099359;23;20005;-75
2023/03/08 13:57:01;;;;;;;7.97;1.80;;;16.10;76.60;;;;;;6099731;23;20137;-74
2023/03/08 13:59:28;;;;;;;6.35;1.55;;;16.20;76.00;;;;;;6099919;23;20130;-74
2023/03/08 14:01:54;;;;;;;6.15;1.60;;;16.00;75.10;;;;;;6099214;23;20014;-74
2023/03/08 14:04:29;;;;;;;4.35;1.00;;;16.00;75.80;;;;;;6099544;23;20011;-74
2023/03/08 14:06:57;;;;;;;3.58;1.50;;;16.00;75.60;;;;;;6099934;23;20007;-75
2023/03/08 14:09:24;;;;;;;7.18;1.38;;;16.00;75.30;;;;;;6097805;23;20398;-74
2023/03/08 14:11:59;;;;;;;10.68;2.13;;;16.10;75.20;;;;;;6099771;23;20014;-75
2023/03/08 14:14:37;;;;;;;7.25;1.70;;;16.10;74.80;;;;;;6099395;23;20057;-74
2023/03/08 14:17:04;;;;;;;7.85;1.67;;;16.00;75.40;;;;;;6099277;23;20041;-74
2023/03/08 14:19:34;;;;;;;13.77;1.80;;;16.00;75.70;;;;;;6099638;23;20005;-74
2023/03/08 14:22:02;;;;;;;4.45;1.08;;;16.00;74.90;;;;;;6097894;23;20006;-74
2023/03/08 14:24:34;;;;;;;9.70;2.40;;;15.80;75.10;;;;;;6098018;23;20002;-74
2023/03/08 14:27:02;;;;;;;11.95;2.10;;;15.80;75.30;;;;;;6098094;23;20007;-74
2023/03/08 14:29:33;;;;;;;10.32;3.13;;;15.90;75.10;;;;;;6097848;23;20081;-74
2023/03/08 14:32:25;;;;;;;10.40;1.60;;;16.10;74.80;;;;;;6098997;23;20022;-74
2023/03/08 14:34:51;;;;;;;8.75;1.73;;;16.30;74.70;;;;;;6096408;23;20010;-75
2023/03/08 14:37:27;;;;;;;10.60;1.70;;;16.30;74.70;;;;;;6097991;23;20559;-74
2023/03/08 14:40:10;;;;;;;9.27;1.95;;;16.30;74.50;;;;;;6098433;23;20002;-74
2023/03/08 14:42:43;;;;;;;10.38;1.70;;;16.40;73.90;;;;;;6098038;23;20002;-75
2023/03/08 14:45:21;;;;;;;8.50;1.75;;;16.50;73.80;;;;;;6098521;23;20006;-76
2023/03/08 14:47:54;;;;;;;10.35;3.10;;;16.50;73.20;;;;;;6099023;23;20089;-74
2023/03/08 14:50:33;;;;;;;10.95;2.10;;;16.60;73.60;;;;;;6099323;23;20021;-75
2023/03/08 14:53:03;;;;;;;7.55;1.70;;;16.50;73.50;;;;;;6122365;23;20066;-77
2023/03/08 14:55:34;;;;;;;11.43;2.05;;;16.70;73.40;;;;;;6099797;23;20006;-74
2023/03/08 14:58:18;;;;;;;10.75;2.63;;;16.70;72.70;;;;;;6098692;23;19998;-75
2023/03/08 15:00:50;;;;;;;10.10;2.25;;;16.80;72.50;;;;;;6099568;23;20006;-74
2023/03/08 15:03:15;;;;;;;13.02;2.33;;;16.80;72.70;;;;;;6099394;23;20007;-74
2023/03/08 15:05:41;;;;;;;19.27;2.25;;;16.80;72.00;;;;;;6098986;23;20122;-74
2023/03/08 15:08:10;;;;;;;8.30;2.55;;;16.80;71.80;;;;;;6099763;23;20006;-75
2023/03/08 15:10:38;;;;;;;11.32;2.28;;;16.80;71.80;;;;;;6098997;23;20338;-74
2023/03/08 15:13:07;;;;;;;14.95;3.17;;;16.80;70.90;;;;;;6098000;23;20007;-74
2023/03/08 15:15:32;;;;;;;9.73;1.95;;;16.70;71.40;;;;;;6099385;23;20034;-74
2023/03/08 15:17:58;;;;;;;12.13;2.67;;;16.70;70.90;;;;;;6099683;23;20002;-74
2023/03/08 15:20:24;;;;;;;13.48;3.05;;;16.60;70.70;;;;;;6099219;23;20009;-75
2023/03/08 15:22:53;;;;;;;13.10;2.85;;;16.50;71.80;;;;;;6099650;23;20450;-75
2023/03/08 15:25:37;;;;;;;10.07;2.47;;;16.40;71.60;;;;;;6099510;23;20438;-74
2023/03/08 15:28:04;;;;;;;10.48;2.03;;;16.40;71.80;;;;;;6097960;23;20010;-75
2023/03/08 15:30:31;;;;;;;19.02;3.33;;;16.30;71.70;;;;;;6098877;23;20525;-74
2023/03/08 15:32:58;;;;;;;13.40;2.42;;;16.30;71.60;;;;;;6099551;23;20002;-74
2023/03/08 15:35:24;;;;;;;12.02;2.80;;;16.20;72.20;;;;;;6099006;23;20014;-74
2023/03/08 15:37:50;;;;;;;17.48;3.03;;;16.30;72.50;;;;;;6099563;23;20034;-74
2023/03/08 15:40:26;;;;;;;11.07;2.92;;;16.30;72.30;;;;;;6099446;23;19998;-74
2023/03/08 15:42:52;;;;;;;18.95;3.60;;;16.30;71.70;;;;;;6099118;23;20009;-74
2023/03/08 15:45:18;;;;;;;10.13;2.10;;;16.30;71.40;;;;;;6122271;23;20038;-74
2023/03/08 15:47:53;;;;;;;10.77;2.45;;;16.30;71.00;;;;;;6099446;23;20006;-74
2023/03/08 15:50:19;;;;;;;13.98;2.28;;;16.30;71.10;;;;;;6099004;23;20062;-74
2023/03/08 15:52:44;;;;;;;14.88;3.17;;;16.30;71.10;;;;;;6099475;23;20006;-74
2023/03/08 15:55:12;;;;;;;12.85;3.13;;;16.30;71.20;;;;;;6099213;23;20014;-75
2023/03/08 15:57:39;;;;;;;17.52;2.47;;;16.30;71.30;;;;;;6097805;23;20134;-74
2023/03/08 16:00:11;;;;;;;15.63;2.55;;;16.30;71.20;;;;;;6098964;23;20037;-74
2023/03/08 16:02:37;;;;;;;21.55;3.25;;;16.20;70.90;;;;;;6099301;23;20392;-74
2023/03/08 16:05:04;;;;;;;12.88;2.45;;;16.20;71.20;;;;;;6098903;23;20002;-74
2023/03/08 16:07:30;;;;;;;11.80;2.85;;;16.00;71.30;;;;;;6099420;23;20441;-74
2023/03/08 16:09:56;;;;;;;12.23;3.78;;;16.00;72.20;;;;;;6121984;23;20010;-74
2023/03/08 16:12:21;;;;;;;18.73;3.42;;;16.00;71.70;;;;;;6097334;23;20017;-74
2023/03/08 16:14:48;;;;;;;14.13;3.38;;;16.00;72.10;;;;;;6098021;23;20018;-74
2023/03/08 16:17:16;;;;;;;16.27;3.15;;;16.00;72.50;;;;;;6100210;23;20013;-73
2023/03/08 16:19:42;;;;;;;16.20;2.72;;;16.00;72.70;;;;;;6098607;23;20442;-73
2023/03/08 16:22:08;;;;;;;15.13;2.88;;;15.90;72.90;;;;;;6100103;23;20383;-73
2023/03/08 16:24:34;;;;;;;11.95;3.20;;;15.90;73.20;;;;;;6100085;23;20014;-73
2023/03/08 16:27:03;;;;;;;17.10;2.95;;;15.90;73.30;;;;;;6099871;23;20354;-74
2023/03/08 16:29:30;;;;;;;13.23;2.83;;;15.80;73.70;;;;;;6100142;23;20003;-75
2023/03/08 16:31:57;;;;;;;18.63;3.60;;;15.80;73.80;;;;;;6097554;23;20026;-75
2023/03/08 16:34:24;;;;;;;15.93;3.58;;;15.80;74.10;;;;;;6098955;23;20622;-75
2023/03/08 16:36:51;;;;;;;13.27;2.65;;;15.80;74.10;;;;;;6099332;23;20010;-75
2023/03/08 16:39:16;;;;;;;17.20;3.72;;;15.60;74.30;;;;;;6101035;23;19999;-75
2023/03/08 16:41:42;;;;;;;19.73;3.10;;;15.60;74.40;;;;;;6100676;23;20454;-75
2023/03/08 16:44:21;;;;;;;14.18;2.55;;;15.50;74.70;;;;;;6123759;23;20042;-75
2023/03/08 16:46:47;;;;;;;13.40;2.55;;;15.50;74.80;;;;;;6098063;23;20074;-75
2023/03/08 16:49:13;;;;;;;13.82;2.83;;;15.40;74.70;;;;;;6099699;23;20335;-75
2023/03/08 16:51:39;;;;;;;12.73;3.10;;;15.40;75.00;;;;;;6099869;23;20465;-75
2023/03/08 16:54:04;;;;;;;6.82;2.00;;;15.30;75.10;;;;;;6122992;23;20010;-75
2023/03/08 16:56:30;;;;;;;15.85;3.50;;;15.30;75.20;;;;;;6099525;23;20042;-75
2023/03/08 16:58:58;;;;;;;18.15;4.15;;;15.30;75.60;;;;;;6067441;23;20437;-75
2023/03/08 17:01:24;;;;;;;16.65;3.08;;;15.30;75.80;;;;;;6100200;23;20003;-75
2023/03/08 17:03:51;;;;;;;17.90;3.22;;;15.20;76.10;;;;;;6122083;23;20424;-75
2023/03/08 17:06:19;;;;;;;19.23;4.28;;;15.20;76.40;;;;;;6100871;23;20010;-75
2023/03/08 17:08:45;;;;;;;12.52;3.28;;;15.10;77.00;;;;;;6100273;23;20003;-74
2023/03/08 17:11:16;;;;;;;19.80;4.28;;;15.00;77.10;;;;;;6100852;23;20034;-74
2023/03/08 17:13:42;;;;;;;17.30;3.20;;;15.00;77.50;;;;;;6100760;23;20026;-75
2023/03/08 17:16:12;;;;;;;12.57;3.03;;;15.00;77.80;;;;;;6098789;23;20014;-74
2023/03/08 17:18:38;;;;;;;12.73;2.47;;;14.90;77.90;;;;;;6123632;23;20014;-74
2023/03/08 17:21:05;;;;;;;15.30;2.47;;;14.80;78.00;;;;;;6100742;23;19999;-75
2023/03/08 17:23:31;;;;;;;5.22;2.17;;;14.80;78.30;;;;;;6098828;23;20382;-74
2023/03/08 17:25:56;;;;;;;11.82;2.85;;;14.70;78.70;;;;;;6100188;23;20010;-75
2023/03/08 17:28:34;;;;;;;5.97;2.05;;;14.60;79.20;;;;;;6099606;23;20006;-78
2023/03/08 17:31:00;;;;;;;11.80;3.33;;;14.50;79.20;;;;;;6096870;23;20030;-79
2023/03/08 17:33:26;;;;;;;13.75;3.10;;;14.50;79.50;;;;;;6100255;23;20010;-78
2023/03/08 17:35:53;;;;;;;23.15;4.00;;;14.50;79.70;;;;;;6121704;23;20457;-79
2023/03/08 17:38:22;;;;;;;14.32;3.53;;;14.50;80.10;;;;;;6099747;23;20062;-79
2023/03/08 17:40:48;;;;;;;16.38;4.40;;;14.50;80.40;;;;;;6099080;23;20006;-79
2023/03/08 17:43:14;;;;;;;18.60;5.10;;;14.50;80.80;;;;;;6099339;23;20006;-79
2023/03/08 17:45:39;;;;;;;15.02;3.40;;;14.50;80.80;;;;;;6099015;23;20006;-78
2023/03/08 17:48:05;;;;;;;19.30;3.25;;;14.40;81.30;;;;;;6097637;23;20439;-79
2023/03/08 17:50:33;;;;;;;17.08;3.00;;;14.40;81.40;;;;;;6123055;23;20406;-78
2023/03/08 17:52:59;;;;;;;14.55;3.35;;;14.30;81.20;;;;;;6122379;23;20006;-79
2023/03/08 17:55:25;;;;;;;12.48;3.17;;;14.30;81.10;;;;;;6122370;23;20035;-79
2023/03/08 17:57:51;;;;;;;16.52;4.57;;;14.30;81.20;;;;;;6099306;23;20007;-79
2023/03/08 18:00:17;;;;;;;8.50;2.50;;;14.20;80.90;;;;;;6098067;23;20079;-79
2023/03/08 18:02:44;;;;;;;11.25;3.00;;;14.00;80.90;;;;;;6100066;23;20002;-78
2023/03/08 18:05:11;;;;;;;11.20;3.38;;;14.00;81.30;;;;;;6096835;23;20006;-79
2023/03/08 18:07:37;;;;;;;15.73;3.95;;;14.00;81.40;;;;;;6096654;23;20014;-79
2023/03/08 18:10:05;;;;;;;16.60;4.00;;;14.00;81.80;;;;;;6097457;23;20442;-79
2023/03/08 18:12:30;;;;;;;9.18;2.83;;;14.00;81.80;;;;;;6099920;23;20017;-80
2023/03/08 18:14:56;;;;;;;8.77;3.40;;;13.80;81.90;;;;;;6098291;23;20011;-80
2023/03/08 18:17:22;;;;;;;9.93;2.90;;;13.80;82.30;;;;;;6097798;23;20435;-85
2023/03/08 18:19:47;;;;;;;9.52;2.45;;;13.80;81.80;;;;;;6099618;23;20435;-85
2023/03/08 18:22:14;;;;;;;5.78;2.38;;;13.70;81.70;;;;;;6096638;23;20041;-89
2023/03/08 18:24:39;;;;;;;6.13;2.42;;;13.70;81.90;;;;;;6121965;23;20006;-88
2023/03/08 18:27:05;;;;;;;7.57;2.42;;;13.60;82.00;;;;;;6100329;23;20021;-89
2023/03/08 18:29:33;;;;;;;7.60;2.05;;;13.60;82.20;;;;;;6100148;23;20002;-87
2023/03/08 18:31:59;;;;;;;8.55;2.15;;;13.50;81.80;;;;;;6122584;23;20022;-80